createdAt,value
2018-07-17T02:27:05.818Z,3
2018-07-17T02:36:06.442Z,7
2018-07-17T02:40:36.713Z,10
2018-07-17T02:43:06.798Z,13
2018-07-17T02:45:06.958Z,17
2018-07-17T02:46:37.004Z,20
2018-07-17T02:48:07.149Z,23
2018-07-17T02:49:07.171Z,27
2018-07-17T02:50:07.233Z,30
2018-07-17T02:51:07.285Z,33
2018-07-17T02:51:37.399Z,37
2018-07-17T02:52:37.398Z,40
2018-07-17T02:53:07.482Z,43
2018-07-17T02:53:37.526Z,47
2018-07-17T02:54:07.523Z,50
2018-07-17T02:54:37.561Z,53
2018-07-17T02:55:07.629Z,57
2018-07-17T02:56:07.730Z,63
2018-07-17T02:56:37.768Z,67
2018-07-17T02:57:07.749Z,70
2018-07-17T02:57:37.766Z,73
2018-07-17T02:58:07.784Z,77
2018-07-17T02:58:37.818Z,83
2018-07-17T02:59:07.866Z,87
2018-07-17T02:59:37.914Z,93
2018-07-17T03:00:07.904Z,97
2018-07-17T03:00:37.901Z,103
2018-07-17T03:01:07.967Z,110
2018-07-17T03:01:37.940Z,113
2018-07-17T03:02:08.023Z,120
2018-07-17T03:02:38.077Z,127
2018-07-17T03:03:08.138Z,133
2018-07-17T03:03:38.139Z,140
2018-07-17T03:04:08.178Z,147
2018-07-17T03:04:38.204Z,157
2018-07-17T03:05:08.210Z,163
2018-07-17T03:05:38.265Z,170
2018-07-17T03:06:08.322Z,180
2018-07-17T03:06:38.305Z,187
2018-07-17T03:07:08.401Z,197
2018-07-17T03:07:38.309Z,207
2018-07-17T03:08:08.390Z,213
2018-07-17T03:08:38.405Z,220
2018-07-17T03:09:08.450Z,230
2018-07-17T03:09:38.518Z,243
2018-07-17T03:10:08.582Z,253
2018-07-17T03:10:38.549Z,263
2018-07-17T03:11:08.588Z,277
2018-07-17T03:11:38.580Z,287
2018-07-17T03:12:08.598Z,300
2018-07-17T03:12:38.655Z,313
2018-07-17T03:13:08.698Z,327
2018-07-17T03:13:38.758Z,340
2018-07-17T03:14:08.734Z,353
2018-07-17T03:14:38.795Z,367
2018-07-17T03:15:08.774Z,380
2018-07-17T03:15:38.797Z,397
2018-07-17T03:16:08.837Z,413
2018-07-17T03:16:38.902Z,427
2018-07-17T03:17:08.891Z,440
2018-07-17T03:17:38.938Z,460
2018-07-17T03:18:08.978Z,477
2018-07-17T03:18:38.975Z,497
2018-07-17T03:19:09.080Z,513
2018-07-17T03:19:39.146Z,533
2018-07-17T03:20:09.134Z,553
2018-07-17T03:20:39.148Z,577
2018-07-17T03:21:09.190Z,597
2018-07-17T03:21:39.169Z,617
2018-07-17T03:22:09.225Z,640
2018-07-17T03:22:39.237Z,657
2018-07-17T03:23:09.311Z,680
2018-07-17T03:23:39.332Z,703
2018-07-17T03:24:09.395Z,727
2018-07-17T03:24:40.084Z,750
2018-07-17T03:25:09.953Z,773
2018-07-17T03:25:39.934Z,800
2018-07-17T03:26:09.985Z,827
2018-07-17T03:26:40.018Z,850
2018-07-17T03:27:10.075Z,873
2018-07-17T03:27:40.068Z,900
2018-07-17T03:28:10.195Z,927
2018-07-17T03:28:40.207Z,953
2018-07-17T03:29:10.152Z,983
2018-07-17T03:29:40.183Z,1013
2018-07-17T03:30:10.274Z,1043
2018-07-17T03:30:40.301Z,1067
2018-07-17T03:31:10.390Z,1100
2018-07-17T03:31:40.329Z,1133
2018-07-17T03:32:10.444Z,1167
2018-07-17T03:32:40.403Z,1203
2018-07-17T03:33:10.507Z,1237
2018-07-17T03:33:40.526Z,1273
2018-07-17T03:34:10.579Z,1303
2018-07-17T03:34:40.923Z,1340
2018-07-17T03:35:10.987Z,1373
2018-07-17T03:35:41.059Z,1410
2018-07-17T03:36:11.059Z,1443
2018-07-17T03:36:41.079Z,1480
2018-07-17T03:37:11.118Z,1513
2018-07-17T03:37:41.117Z,1553
2018-07-17T03:38:11.204Z,1600
2018-07-17T03:38:41.218Z,1650
2018-07-17T03:39:11.211Z,1707
2018-07-17T03:39:41.278Z,1763
2018-07-17T03:40:11.250Z,1823
2018-07-17T03:40:41.482Z,1883
2018-07-17T03:41:11.308Z,1940
2018-07-17T03:41:41.373Z,2000
2018-07-17T03:42:11.370Z,2050
2018-07-17T03:42:41.412Z,2093
2018-07-17T03:43:11.466Z,2133
2018-07-17T03:43:41.454Z,2173
2018-07-17T03:44:11.576Z,2223
2018-07-17T03:44:41.541Z,2280
2018-07-17T03:45:11.617Z,2333
2018-07-17T03:45:41.677Z,2377
2018-07-17T03:46:11.767Z,2427
2018-07-17T03:46:41.652Z,2483
2018-07-17T03:47:11.717Z,2540
2018-07-17T03:47:41.739Z,2590
2018-07-17T03:48:11.792Z,2650
2018-07-17T03:48:41.758Z,2703
2018-07-17T03:49:11.828Z,2750
2018-07-17T03:49:41.802Z,2790
2018-07-17T03:50:11.948Z,2840
2018-07-17T03:50:41.873Z,2893
2018-07-17T03:51:12.474Z,2947
2018-07-17T03:51:41.926Z,2987
2018-07-17T03:52:12.258Z,3030
2018-07-17T03:52:42.269Z,3080
2018-07-17T03:53:12.365Z,3127
2018-07-17T03:53:42.372Z,3170
2018-07-17T03:54:12.415Z,3207
2018-07-17T03:54:42.367Z,3250
2018-07-17T03:55:12.439Z,3293
2018-07-17T03:55:42.605Z,3340
2018-07-17T03:56:12.699Z,3380
2018-07-17T03:56:42.570Z,3420
2018-07-17T03:57:12.536Z,3467
2018-07-17T03:57:42.584Z,3510
2018-07-17T03:58:12.591Z,3553
2018-07-17T03:58:42.659Z,3597
2018-07-17T03:59:12.706Z,3640
2018-07-17T03:59:42.703Z,3680
2018-07-17T04:00:12.797Z,3727
2018-07-17T04:00:42.757Z,3773
2018-07-17T04:01:12.917Z,3817
2018-07-17T04:01:43.031Z,3857
2018-07-17T04:02:12.851Z,3903
2018-07-17T04:02:42.926Z,3947
2018-07-17T04:03:13.017Z,3993
2018-07-17T04:03:42.927Z,4040
2018-07-17T04:04:12.969Z,4083
2018-07-17T04:04:42.983Z,4130
2018-07-17T04:05:13.019Z,4177
2018-07-17T04:05:43.048Z,4223
2018-07-17T04:06:13.170Z,4267
2018-07-17T04:06:43.716Z,4310
2018-07-17T04:07:13.175Z,4360
2018-07-17T04:07:43.224Z,4407
2018-07-17T04:08:13.218Z,4450
2018-07-17T04:08:43.369Z,4497
2018-07-17T04:09:13.340Z,4543
2018-07-17T04:09:43.347Z,4593
2018-07-17T04:10:13.383Z,4643
2018-07-17T04:10:43.423Z,4693
2018-07-17T04:11:13.543Z,4737
2018-07-17T04:11:43.621Z,4787
2018-07-17T04:12:13.509Z,4833
2018-07-17T04:12:43.524Z,4880
2018-07-17T04:13:13.759Z,4923
2018-07-17T04:13:43.574Z,4970
2018-07-17T04:14:13.688Z,5013
2018-07-17T04:14:43.711Z,5057
2018-07-17T04:15:13.708Z,5100
2018-07-17T04:15:43.722Z,5140
2018-07-17T04:16:13.722Z,5190
2018-07-17T04:16:43.969Z,5240
2018-07-17T04:17:13.847Z,5290
2018-07-17T04:17:43.986Z,5337
2018-07-17T04:18:13.963Z,5387
2018-07-17T04:18:43.984Z,5440
2018-07-17T04:19:13.914Z,5490
2018-07-17T04:19:43.980Z,5540
2018-07-17T04:20:13.954Z,5583
2018-07-17T04:20:44.077Z,5630
2018-07-17T04:21:14.015Z,5677
2018-07-17T04:21:44.334Z,5720
2018-07-17T04:22:14.157Z,5760
2018-07-17T04:22:44.159Z,5793
2018-07-17T04:23:14.175Z,5833
2018-07-17T04:23:44.260Z,5877
2018-07-17T04:24:14.304Z,5917
2018-07-17T04:24:44.325Z,5960
2018-07-17T04:25:14.332Z,5997
2018-07-17T04:25:44.370Z,6037
2018-07-17T04:26:14.469Z,6073
2018-07-17T04:26:44.697Z,6113
2018-07-17T04:27:14.461Z,6150
2018-07-17T04:27:44.535Z,6187
2018-07-17T04:28:14.506Z,6220
2018-07-17T04:28:44.505Z,6257
2018-07-17T04:29:14.524Z,6290
2018-07-17T04:29:44.658Z,6327
2018-07-17T04:30:14.630Z,6363
2018-07-17T04:30:44.624Z,6400
2018-07-17T04:31:14.724Z,6433
2018-07-17T04:31:44.876Z,6467
2018-07-17T04:32:14.694Z,6503
2018-07-17T04:32:44.775Z,6540
2018-07-17T04:33:14.815Z,6587
2018-07-17T04:33:44.829Z,6627
2018-07-17T04:34:14.834Z,6677
2018-07-17T04:34:44.931Z,6733
2018-07-17T04:35:14.931Z,6800
2018-07-17T04:35:44.915Z,6870
2018-07-17T04:36:14.941Z,6950
2018-07-17T04:36:45.507Z,7010
2018-07-17T04:37:15.015Z,7053
2018-07-17T04:37:45.032Z,7087
2018-07-17T04:38:15.160Z,7103
2018-07-17T04:38:45.107Z,7123
2018-07-17T04:39:15.177Z,7150
2018-07-17T04:39:45.278Z,7173
2018-07-17T04:40:15.393Z,7200
2018-07-17T04:40:45.389Z,7230
2018-07-17T04:41:15.312Z,7253
2018-07-17T04:41:45.539Z,7273
2018-07-17T04:42:15.352Z,7300
2018-07-17T04:42:45.571Z,7343
2018-07-17T04:43:15.671Z,7397
2018-07-17T04:43:45.483Z,7447
2018-07-17T04:44:15.514Z,7477
2018-07-17T04:44:45.661Z,7500
2018-07-17T04:45:15.526Z,7517
2018-07-17T04:45:45.684Z,7503
2018-07-17T04:46:15.634Z,7487
2018-07-17T04:46:45.834Z,7493
2018-07-17T04:47:15.631Z,7513
2018-07-17T04:47:45.749Z,7537
2018-07-17T04:48:15.709Z,7563
2018-07-17T04:48:45.775Z,7593
2018-07-17T04:49:15.801Z,7620
2018-07-17T04:49:45.788Z,7650
2018-07-17T04:50:15.855Z,7677
2018-07-17T04:50:45.849Z,7697
2018-07-17T04:51:16.041Z,7720
2018-07-17T04:51:46.333Z,7747
2018-07-17T04:52:16.204Z,7777
2018-07-17T04:52:46.129Z,7810
2018-07-17T04:53:16.193Z,7847
2018-07-17T04:53:46.245Z,7883
2018-07-17T04:54:16.295Z,7917
2018-07-17T04:54:46.255Z,7957
2018-07-17T04:55:16.319Z,8000
2018-07-17T04:55:46.443Z,8037
2018-07-17T04:56:16.385Z,8080
2018-07-17T04:56:46.572Z,8113
2018-07-17T04:57:16.501Z,8147
2018-07-17T04:57:46.554Z,8183
2018-07-17T04:58:16.514Z,8220
2018-07-17T04:58:46.575Z,8257
2018-07-17T04:59:16.628Z,8290
2018-07-17T04:59:46.646Z,8323
2018-07-17T05:00:16.675Z,8367
2018-07-17T05:00:46.686Z,8410
2018-07-17T05:01:16.714Z,8457
2018-07-17T05:01:47.088Z,8500
2018-07-17T05:02:16.787Z,8960
2018-07-17T05:02:46.840Z,10897
2018-07-17T05:03:16.818Z,13583
2018-07-17T05:03:46.945Z,15913
2018-07-17T05:04:16.944Z,16630
2018-07-17T05:04:47.031Z,15810
2018-07-17T05:05:16.962Z,14877
2018-07-17T05:05:47.089Z,14263
2018-07-17T05:06:17.009Z,14520
2018-07-17T05:06:47.247Z,14657
2018-07-17T05:07:17.081Z,14687
2018-07-17T05:07:47.154Z,15657
2018-07-17T05:08:17.130Z,16933
2018-07-17T05:08:47.392Z,18393
2018-07-17T05:09:17.205Z,19230
2018-07-17T05:09:47.219Z,19897
2018-07-17T05:10:17.366Z,20327
2018-07-17T05:10:47.287Z,19830
2018-07-17T05:11:17.318Z,19303
2018-07-17T05:11:47.465Z,18950
2018-07-17T05:12:17.390Z,19303
2018-07-17T05:12:47.413Z,20470
2018-07-17T05:13:17.402Z,21370
2018-07-17T05:13:47.517Z,21037
2018-07-17T05:14:47.515Z,21217
2018-07-17T05:15:17.577Z,21703
2018-07-17T05:15:47.548Z,23100
2018-07-17T05:16:17.618Z,23387
2018-07-17T05:16:47.754Z,23467
2018-07-17T05:17:17.641Z,23697
2018-07-17T05:17:47.723Z,23760
2018-07-17T05:18:17.709Z,23750
2018-07-17T05:18:47.782Z,23667
2018-07-17T05:19:17.761Z,23740
2018-07-17T05:19:47.822Z,22937
2018-07-17T05:20:17.905Z,21407
2018-07-17T05:20:47.893Z,19873
2018-07-17T05:21:17.898Z,17130
2018-07-17T05:21:48.191Z,14527
2018-07-17T05:22:18.046Z,12703
2018-07-17T05:22:47.988Z,10980
2018-07-17T05:23:18.027Z,10197
2018-07-17T05:23:48.150Z,10533
2018-07-17T05:24:18.090Z,10577
2018-07-17T05:24:48.144Z,10430
2018-07-17T05:25:18.271Z,10320
2018-07-17T05:25:48.187Z,10137
2018-07-17T05:26:18.217Z,10063
2018-07-17T05:26:48.364Z,10213
2018-07-17T05:27:18.353Z,10423
2018-07-17T05:27:48.368Z,10620
2018-07-17T05:28:18.349Z,11040
2018-07-17T05:28:48.465Z,11413
2018-07-17T05:29:18.524Z,11670
2018-07-17T05:29:48.467Z,11477
2018-07-17T05:30:18.505Z,11650
2018-07-17T05:30:48.525Z,11680
2018-07-17T05:31:18.618Z,11593
2018-07-17T05:31:48.680Z,11797
2018-07-17T05:32:18.603Z,12793
2018-07-17T05:32:48.638Z,14237
2018-07-17T05:33:18.791Z,14507
2018-07-17T05:33:48.698Z,13653
2018-07-17T05:34:18.708Z,12350
2018-07-17T05:34:48.771Z,11693
2018-07-17T05:35:18.814Z,12913
2018-07-17T05:35:48.821Z,13467
2018-07-17T05:36:18.898Z,14397
2018-07-17T05:36:48.977Z,15170
2018-07-17T05:37:18.937Z,15190
2018-07-17T05:37:48.935Z,14987
2018-07-17T05:38:18.965Z,16207
2018-07-17T05:38:49.002Z,15623
2018-07-17T05:39:19.006Z,14597
2018-07-17T05:39:49.094Z,15083
2018-07-17T05:40:19.090Z,17297
2018-07-17T05:40:49.126Z,17387
2018-07-17T05:41:19.160Z,16393
2018-07-17T05:41:49.292Z,15500
2018-07-17T05:42:19.230Z,13453
2018-07-17T05:42:49.302Z,12347
2018-07-17T05:43:19.347Z,12590
2018-07-17T05:43:49.343Z,13040
2018-07-17T05:44:19.364Z,12303
2018-07-17T05:44:49.396Z,12967
2018-07-17T05:45:19.438Z,14790
2018-07-17T05:45:49.464Z,16993
2018-07-17T05:46:19.489Z,18497
2018-07-17T05:46:49.646Z,17837
2018-07-17T05:47:19.608Z,17010
2018-07-17T05:47:49.594Z,17640
2018-07-17T05:48:19.642Z,17083
2018-07-17T05:48:49.887Z,19327
2018-07-17T05:49:19.682Z,17497
2018-07-17T05:49:49.697Z,13987
2018-07-17T05:50:19.805Z,15603
2018-07-17T05:50:49.767Z,16667
2018-07-17T05:51:19.815Z,18737
2018-07-17T05:51:50.148Z,19950
2018-07-17T05:52:19.868Z,18263
2018-07-17T05:52:49.882Z,15337
2018-07-17T05:53:19.901Z,14570
2018-07-17T05:53:49.961Z,14100
2018-07-17T05:54:19.996Z,14183
2018-07-17T05:54:49.997Z,13723
2018-07-17T05:55:20.028Z,14813
2018-07-17T05:55:50.065Z,16913
2018-07-17T05:56:20.121Z,18380
2018-07-17T05:56:50.277Z,18187
2018-07-17T05:57:20.218Z,16633
2018-07-17T05:57:50.210Z,14913
2018-07-17T05:58:20.246Z,14000
2018-07-17T05:58:50.257Z,12197
2018-07-17T05:59:20.318Z,12020
2018-07-17T05:59:50.317Z,13233
2018-07-17T06:00:20.317Z,12617
2018-07-17T06:00:50.729Z,14563
2018-07-17T06:01:20.373Z,14480
2018-07-17T06:01:50.589Z,13083
2018-07-17T06:02:20.459Z,12703
2018-07-17T06:02:50.496Z,12773
2018-07-17T06:03:20.600Z,12597
2018-07-17T06:03:50.542Z,12710
2018-07-17T06:04:20.560Z,12557
2018-07-17T06:04:50.673Z,12700
2018-07-17T06:05:20.613Z,12877
2018-07-17T06:05:50.710Z,12723
2018-07-17T06:06:20.688Z,12753
2018-07-17T06:06:50.771Z,12953
2018-07-17T06:07:20.737Z,12987
2018-07-17T06:07:50.848Z,12963
2018-07-17T06:08:20.803Z,12977
2018-07-17T06:08:50.847Z,13173
2018-07-17T06:09:20.859Z,13007
2018-07-17T06:09:50.887Z,13023
2018-07-17T06:10:21.107Z,13087
2018-07-17T06:10:50.961Z,13123
2018-07-17T06:11:21.007Z,13190
2018-07-17T06:11:51.024Z,13270
2018-07-17T06:12:21.184Z,13353
2018-07-17T06:12:51.143Z,13380
2018-07-17T06:13:21.166Z,13483
2018-07-17T06:13:51.186Z,13480
2018-07-17T06:14:21.224Z,13667
2018-07-17T06:14:51.257Z,13677
2018-07-17T06:15:21.305Z,13780
2018-07-17T06:15:51.307Z,13663
2018-07-17T06:16:21.378Z,13523
2018-07-17T06:16:51.331Z,13493
2018-07-17T06:17:21.551Z,13427
2018-07-17T06:17:51.431Z,13367
2018-07-17T06:18:21.466Z,13227
2018-07-17T06:18:51.540Z,13197
2018-07-17T06:19:21.508Z,13230
2018-07-17T06:19:51.559Z,13253
2018-07-17T06:20:21.562Z,13267
2018-07-17T06:20:51.644Z,13260
2018-07-17T06:21:21.607Z,13317
2018-07-17T06:21:51.657Z,13237
2018-07-17T06:22:22.185Z,13243
2018-07-17T06:22:51.847Z,13187
2018-07-17T06:23:21.730Z,13120
2018-07-17T06:23:51.838Z,13220
2018-07-17T06:24:21.792Z,13363
2018-07-17T06:24:51.901Z,13163
2018-07-17T06:25:21.877Z,13547
2018-07-17T06:25:51.875Z,13440
2018-07-17T06:26:21.909Z,14137
2018-07-17T06:26:52.136Z,13427
2018-07-17T06:27:22.093Z,14020
2018-07-17T06:27:52.001Z,15387
2018-07-17T06:28:22.045Z,13623
2018-07-17T06:28:52.126Z,13843
2018-07-17T06:29:22.119Z,13217
2018-07-17T06:29:52.173Z,13333
2018-07-17T06:30:22.282Z,13337
2018-07-17T06:30:52.187Z,13623
2018-07-17T06:31:22.242Z,13593
2018-07-17T06:31:52.294Z,13530
2018-07-17T06:32:22.460Z,13547
2018-07-17T06:32:52.396Z,13770
2018-07-17T06:33:22.355Z,13273
2018-07-17T06:33:52.409Z,13267
2018-07-17T06:34:22.470Z,13273
2018-07-17T06:34:52.516Z,13293
2018-07-17T06:35:22.615Z,13313
2018-07-17T06:35:52.621Z,13323
2018-07-17T06:36:22.607Z,13353
2018-07-17T06:36:52.668Z,13467
2018-07-17T06:37:22.764Z,13457
2018-07-17T06:37:52.913Z,13657
2018-07-17T06:38:22.739Z,14313
2018-07-17T06:38:52.787Z,14583
2018-07-17T06:39:22.776Z,14387
2018-07-17T06:39:52.835Z,14080
2018-07-17T06:40:22.835Z,13623
2018-07-17T06:40:52.917Z,13737
2018-07-17T06:41:22.889Z,13777
2018-07-17T06:41:52.920Z,13803
2018-07-17T06:42:22.926Z,13680
2018-07-17T06:42:53.083Z,13687
2018-07-17T06:43:23.018Z,13710
2018-07-17T06:43:53.047Z,13713
2018-07-17T06:44:23.040Z,13723
2018-07-17T06:44:53.097Z,13743
2018-07-17T06:45:23.113Z,13837
2018-07-17T06:45:53.179Z,14877
2018-07-17T06:46:23.300Z,14570
2018-07-17T06:46:53.284Z,14533
2018-07-17T06:47:23.254Z,14540
2018-07-17T06:47:53.412Z,14063
2018-07-17T06:48:23.325Z,13973
2018-07-17T06:48:53.437Z,14877
2018-07-17T06:49:23.356Z,14940
2018-07-17T06:49:53.412Z,14783
2018-07-17T06:50:23.630Z,15163
2018-07-17T06:50:53.577Z,14343
2018-07-17T06:51:23.525Z,13983
2018-07-17T06:51:53.521Z,13923
2018-07-17T06:52:23.564Z,13927
2018-07-17T06:52:53.823Z,13930
2018-07-17T06:53:23.695Z,13963
2018-07-17T06:53:53.730Z,14010
2018-07-17T06:54:23.749Z,14020
2018-07-17T06:54:53.782Z,14067
2018-07-17T06:55:23.808Z,14123
2018-07-17T06:55:53.961Z,14177
2018-07-17T06:56:23.868Z,14240
2018-07-17T06:56:53.903Z,14290
2018-07-17T06:57:24.006Z,14357
2018-07-17T06:57:54.249Z,14313
2018-07-17T06:58:23.994Z,14310
2018-07-17T06:58:54.029Z,14367
2018-07-17T06:59:24.058Z,14433
2018-07-17T06:59:54.092Z,14473
2018-07-17T07:00:54.146Z,14447
2018-07-17T07:01:24.219Z,14480
2018-07-17T07:01:54.251Z,14557
2018-07-17T07:02:24.279Z,14617
2018-07-17T07:02:54.417Z,14720
2018-07-17T07:03:24.317Z,14683
2018-07-17T07:04:24.402Z,14740
2018-07-17T07:04:54.403Z,14793
2018-07-17T07:05:24.536Z,14887
2018-07-17T07:05:54.471Z,14870
2018-07-17T07:06:24.500Z,14893
2018-07-17T07:06:54.537Z,18927
2018-07-17T07:07:24.578Z,17490
2018-07-17T07:07:54.868Z,14967
2018-07-17T07:08:24.612Z,15547
2018-07-17T07:08:54.671Z,17450
2018-07-17T07:09:24.668Z,18327
2018-07-17T07:09:54.777Z,15570
2018-07-17T07:10:24.755Z,19553
2018-07-17T07:10:54.761Z,15147
2018-07-17T07:11:24.911Z,15233
2018-07-17T07:11:54.909Z,21140
2018-07-17T07:12:24.853Z,16020
2018-07-17T07:12:55.142Z,15147
2018-07-17T07:13:24.917Z,15157
2018-07-17T07:13:54.955Z,15170
2018-07-17T07:14:25.113Z,15203
2018-07-17T07:15:25.066Z,15197
2018-07-17T07:15:55.070Z,15193
2018-07-17T07:16:25.273Z,15177
2018-07-17T07:17:25.172Z,15200
2018-07-17T07:17:55.547Z,16197
2018-07-17T07:18:25.224Z,16253
2018-07-17T07:18:55.351Z,16417
2018-07-17T07:19:25.380Z,15353
2018-07-17T07:19:55.400Z,15337
2018-07-17T07:20:25.473Z,15447
2018-07-17T07:20:55.422Z,15330
2018-07-17T07:21:25.547Z,15527
2018-07-17T07:21:55.574Z,15337
2018-07-17T07:22:25.613Z,15680
2018-07-17T07:22:55.853Z,15433
2018-07-17T07:23:25.851Z,15217
2018-07-17T07:23:55.794Z,15207
2018-07-17T07:24:25.770Z,15280
2018-07-17T07:24:56.015Z,15370
2018-07-17T07:25:25.872Z,15453
2018-07-17T07:25:55.909Z,18193
2018-07-17T07:26:25.931Z,15983
2018-07-17T07:26:55.998Z,15787
2018-07-17T07:27:25.965Z,15643
2018-07-17T07:27:56.122Z,15830
2018-07-17T07:28:26.054Z,16840
2018-07-17T07:28:56.064Z,18593
2018-07-17T07:29:26.132Z,19077
2018-07-17T07:29:56.136Z,16840
2018-07-17T07:30:26.208Z,16550
2018-07-17T07:30:56.236Z,16117
2018-07-17T07:31:26.254Z,16310
2018-07-17T07:31:56.299Z,15750
2018-07-17T07:32:26.311Z,15937
2018-07-17T07:32:56.431Z,17047
2018-07-17T07:33:26.375Z,16770
2018-07-17T07:33:56.406Z,15807
2018-07-17T07:34:26.442Z,17120
2018-07-17T07:34:56.448Z,18187
2018-07-17T07:35:26.515Z,23997
2018-07-17T07:35:56.505Z,25647
2018-07-17T07:36:26.521Z,25973
2018-07-17T07:36:56.636Z,17697
2018-07-17T07:37:26.648Z,25043
2018-07-17T07:37:56.833Z,22503
2018-07-17T07:38:26.665Z,22713
2018-07-17T07:38:56.651Z,16053
2018-07-17T07:39:26.675Z,27990
2018-07-17T07:39:56.742Z,16130
2018-07-17T07:40:26.726Z,23417
2018-07-17T07:40:56.928Z,15603
2018-07-17T07:41:26.851Z,24403
2018-07-17T07:41:56.949Z,16223
2018-07-17T07:42:26.857Z,18607
2018-07-17T07:42:57.044Z,16787
2018-07-17T07:43:26.924Z,15610
2018-07-17T07:43:56.964Z,15773
2018-07-17T07:44:27.001Z,17930
2018-07-17T07:44:57.009Z,18740
2018-07-17T07:45:27.060Z,18973
2018-07-17T07:45:57.070Z,24930
2018-07-17T07:46:27.117Z,15460
2018-07-17T07:46:57.173Z,16190
2018-07-17T07:47:27.168Z,15853
2018-07-17T07:47:57.365Z,15660
2018-07-17T07:48:27.229Z,50723
2018-07-17T07:48:57.262Z,82403
2018-07-17T07:49:27.336Z,93457
2018-07-17T07:49:57.340Z,85740
2018-07-17T07:50:27.402Z,67527
2018-07-17T07:50:57.381Z,76383
2018-07-17T07:51:27.462Z,25790
2018-07-17T07:51:57.487Z,74637
2018-07-17T07:52:27.481Z,76447
2018-07-17T07:52:57.641Z,86970
2018-07-17T07:53:27.703Z,94887
2018-07-17T07:53:57.594Z,96103
2018-07-17T07:54:27.671Z,96160
2018-07-17T07:54:57.659Z,98700
2018-07-17T07:55:27.706Z,98637
2018-07-17T07:55:57.696Z,99487
2018-07-17T07:56:27.755Z,98187
2018-07-17T07:56:57.770Z,15850
2018-07-17T07:57:27.788Z,19030
2018-07-17T07:57:57.827Z,22053
2018-07-17T07:58:28.126Z,101173
2018-07-17T07:58:57.895Z,100860
2018-07-17T07:59:27.973Z,97623
2018-07-17T07:59:57.978Z,41007
2018-07-17T08:00:27.987Z,38203
2018-07-17T08:00:57.997Z,99980
2018-07-17T08:01:28.119Z,102937
2018-07-17T08:01:58.066Z,102743
2018-07-17T08:02:28.127Z,103527
2018-07-17T08:02:58.196Z,103187
2018-07-17T08:03:28.445Z,103813
2018-07-17T08:03:58.333Z,103773
2018-07-17T08:04:28.388Z,104163
2018-07-17T08:04:58.258Z,104283
2018-07-17T08:05:28.302Z,104787
2018-07-17T08:05:58.475Z,105037
2018-07-17T08:06:28.424Z,105050
2018-07-17T08:06:58.414Z,104903
2018-07-17T08:07:28.480Z,104847
2018-07-17T08:07:58.490Z,105317
2018-07-17T08:08:28.649Z,105417
2018-07-17T08:08:58.536Z,105430
2018-07-17T08:09:28.582Z,105817
2018-07-17T08:09:58.627Z,106230
2018-07-17T08:10:28.625Z,106077
2018-07-17T08:10:58.719Z,106473
2018-07-17T08:11:28.724Z,106500
2018-07-17T08:11:58.763Z,106910
2018-07-17T08:12:28.770Z,107110
2018-07-17T08:12:58.790Z,107520
2018-07-17T08:13:28.966Z,107740
2018-07-17T08:13:58.865Z,107780
2018-07-17T08:14:28.891Z,108167
2018-07-17T08:14:58.944Z,96500
2018-07-17T08:15:28.943Z,63840
2018-07-17T08:15:58.964Z,92120
2018-07-17T08:16:29.006Z,64117
2018-07-17T08:16:59.090Z,46140
2018-07-17T08:17:29.124Z,32060
2018-07-17T08:17:59.084Z,25447
2018-07-17T08:18:29.668Z,48840
2018-07-17T08:18:59.151Z,21710
2018-07-17T08:19:29.277Z,18233
2018-07-17T08:19:59.216Z,17027
2018-07-17T08:20:29.310Z,21163
2018-07-17T08:20:59.259Z,28433
2018-07-17T08:21:29.314Z,19597
2018-07-17T08:21:59.322Z,114250
2018-07-17T08:22:29.398Z,33760
2018-07-17T08:22:59.424Z,80850
2018-07-17T08:23:29.515Z,47660
2018-07-17T08:23:59.503Z,48010
2018-07-17T08:24:29.520Z,74810
2018-07-17T08:24:59.617Z,56747
2018-07-17T08:25:29.536Z,116327
2018-07-17T08:25:59.673Z,116520
2018-07-17T08:26:29.652Z,106643
2018-07-17T08:26:59.619Z,116437
2018-07-17T08:27:29.680Z,116410
2018-07-17T08:27:59.674Z,117023
2018-07-17T08:28:29.706Z,117020
2018-07-17T08:28:59.736Z,116827
2018-07-17T08:29:29.768Z,116693
2018-07-17T08:29:59.794Z,116663
2018-07-17T08:30:29.823Z,116553
2018-07-17T08:30:59.883Z,117237
2018-07-17T08:31:29.888Z,117430
2018-07-17T08:31:59.917Z,117437
2018-07-17T08:32:30.015Z,117900
2018-07-17T08:32:59.993Z,117860
2018-07-17T08:33:30.028Z,118170
2018-07-17T08:34:00.062Z,118340
2018-07-17T08:34:30.090Z,118620
2018-07-17T08:35:00.163Z,118390
2018-07-17T08:35:30.212Z,118650
2018-07-17T08:36:00.211Z,118713
2018-07-17T08:36:30.202Z,118843
2018-07-17T08:37:00.860Z,92157
2018-07-17T08:37:30.254Z,101967
2018-07-17T08:38:01.003Z,119363
2018-07-17T08:38:30.340Z,118737
2018-07-17T08:39:01.552Z,118850
2018-07-17T08:39:30.476Z,61840
2018-07-17T08:40:01.520Z,119467
2018-07-17T08:40:30.480Z,118653
2018-07-17T08:41:01.755Z,117990
2018-07-17T08:41:30.537Z,117843
2018-07-17T08:42:01.578Z,118297
2018-07-17T08:42:30.631Z,62543
2018-07-17T08:43:01.377Z,117973
2018-07-17T08:43:30.882Z,118367
2018-07-17T08:44:01.034Z,88927
2018-07-17T08:44:30.703Z,99973
2018-07-17T08:45:01.649Z,117637
2018-07-17T08:45:30.753Z,117443
2018-07-17T08:46:01.603Z,117007
2018-07-17T08:46:30.912Z,116963
2018-07-17T08:47:01.561Z,117230
2018-07-17T08:47:30.874Z,117000
2018-07-17T08:48:01.679Z,116907
2018-07-17T08:48:30.935Z,116913
2018-07-17T08:49:01.029Z,117043
2018-07-17T08:49:31.001Z,117277
2018-07-17T08:50:01.354Z,116860
2018-07-17T08:50:31.120Z,117027
2018-07-17T08:51:01.881Z,116893
2018-07-17T08:51:31.197Z,116393
2018-07-17T08:52:02.513Z,116513
2018-07-17T08:52:31.187Z,116487
2018-07-17T08:53:01.585Z,116770
2018-07-17T08:53:31.311Z,116667
2018-07-17T08:54:01.661Z,116657
2018-07-17T08:54:31.392Z,116970
2018-07-17T08:55:01.752Z,117120
2018-07-17T08:55:31.431Z,117210
2018-07-17T08:56:01.526Z,116997
2018-07-17T08:56:31.502Z,117193
2018-07-17T08:57:01.683Z,117153
2018-07-17T08:57:31.534Z,117283
2018-07-17T08:58:01.560Z,117047
2018-07-17T08:58:31.599Z,116900
2018-07-17T08:59:01.835Z,116763
2018-07-17T08:59:31.653Z,117163
2018-07-17T09:00:01.666Z,117507
2018-07-17T09:00:31.765Z,117653
2018-07-17T09:01:01.729Z,117900
2018-07-17T09:01:31.827Z,118167
2018-07-17T09:02:01.773Z,118320
2018-07-17T09:02:31.842Z,118190
2018-07-17T09:03:01.834Z,118223
2018-07-17T09:03:31.935Z,118240
2018-07-17T09:04:02.231Z,118087
2018-07-17T09:04:31.969Z,117973
2018-07-17T09:05:02.002Z,119000
2018-07-17T09:05:32.102Z,119687
2018-07-17T09:06:02.231Z,119737
2018-07-17T09:06:32.078Z,119717
2018-07-17T09:07:02.183Z,119893
2018-07-17T09:07:32.233Z,120310
2018-07-17T09:08:02.151Z,120620
2018-07-17T09:08:32.297Z,121017
2018-07-17T09:09:02.496Z,120883
2018-07-17T09:09:32.277Z,120960
2018-07-17T09:10:02.620Z,121647
2018-07-17T09:10:32.345Z,122240
2018-07-17T09:11:02.390Z,122667
2018-07-17T09:11:32.504Z,123250
2018-07-17T09:12:02.456Z,123263
2018-07-17T09:12:32.457Z,123850
2018-07-17T09:13:02.565Z,123717
2018-07-17T09:13:32.530Z,123850
2018-07-17T09:14:02.663Z,123563
2018-07-17T09:14:32.583Z,122667
2018-07-17T09:15:02.610Z,123237
2018-07-17T09:15:32.626Z,123283
2018-07-17T09:16:02.611Z,124127
2018-07-17T09:16:32.676Z,123433
2018-07-17T09:17:02.801Z,121940
2018-07-17T09:17:32.730Z,122483
2018-07-17T09:18:02.855Z,123267
2018-07-17T09:18:32.793Z,123767
2018-07-17T09:19:03.095Z,124210
2018-07-17T09:19:32.860Z,124340
2018-07-17T09:20:02.886Z,124207
2018-07-17T09:20:32.924Z,123603